Time;durP1;ratioP1;P1;durP2;ratioP2;P2;SDS_P1;SDS_P2;PMS_P1;PMS_P2;Temp;Humidity;BMP_temperature;BMP_pressure;BME280_temperature;BME280_humidity;BME280_pressure;Samples;Min_cycle;Max_cycle;Signal;HPM_P1;HPM_P2
2021/12/04 00:00:36;;;;;;;14.13;13.73;;;20.40;53.70;;;;;;5033038;28;20442;-54
2021/12/04 00:03:03;;;;;;;13.40;13.10;;;20.40;53.80;;;;;;5032412;28;20599;-56
2021/12/04 00:05:31;;;;;;;14.30;13.80;;;20.30;53.90;;;;;;5032389;28;20472;-50
2021/12/04 00:07:57;;;;;;;14.90;14.50;;;20.30;54.00;;;;;;5032595;28;20465;-53
2021/12/04 00:10:28;;;;;;;14.20;13.80;;;20.20;54.10;;;;;;5032674;28;20817;-50
2021/12/04 00:12:56;;;;;;;14.57;14.17;;;20.20;54.30;;;;;;5032408;28;20445;-52
2021/12/04 00:15:23;;;;;;;14.00;13.60;;;20.10;54.40;;;;;;5032650;28;20448;-52
2021/12/04 00:17:50;;;;;;;14.30;13.90;;;20.10;54.50;;;;;;5032219;28;20477;-54
2021/12/04 00:20:16;;;;;;;14.33;13.93;;;20.00;54.70;;;;;;5032482;28;20453;-50
2021/12/04 00:22:43;;;;;;;15.10;14.60;;;20.00;54.90;;;;;;5032264;28;20444;-54
2021/12/04 00:25:11;;;;;;;14.60;14.20;;;19.90;55.10;;;;;;5032325;28;20543;-51
2021/12/04 00:27:38;;;;;;;13.90;13.50;;;19.80;55.30;;;;;;5032039;28;20894;-50
2021/12/04 00:30:08;;;;;;;14.10;13.70;;;19.80;55.60;;;;;;5032140;28;20915;-50
2021/12/04 00:32:40;;;;;;;14.70;14.30;;;19.60;55.70;;;;;;5031566;28;20504;-50
2021/12/04 00:35:13;;;;;;;14.20;13.80;;;19.60;56.00;;;;;;5032150;28;20918;-51
2021/12/04 00:37:57;;;;;;;14.30;13.90;;;19.50;56.20;;;;;;5031716;28;20997;-50
2021/12/04 00:49:11;;;;;;;14.90;14.50;;;19.10;57.90;;;;;;5031856;28;20428;-50
2021/12/04 00:51:41;;;;;;;14.80;14.40;;;19.10;57.60;;;;;;5031852;28;20498;-51
2021/12/04 00:54:10;;;;;;;15.07;14.67;;;19.00;57.80;;;;;;5031569;28;20444;-52
2021/12/04 00:56:37;;;;;;;15.00;14.60;;;19.00;58.10;;;;;;5031687;28;20993;-54
2021/12/04 00:59:04;;;;;;;14.87;14.47;;;19.00;58.60;;;;;;5031815;28;20938;-51
2021/12/04 01:01:32;;;;;;;15.10;14.70;;;19.00;58.90;;;;;;5031520;28;20796;-52
2021/12/04 01:03:59;;;;;;;14.70;14.30;;;19.00;59.00;;;;;;5031549;28;20480;-50
2021/12/04 01:06:26;;;;;;;14.70;14.30;;;19.00;59.20;;;;;;5031385;28;21153;-50
2021/12/04 01:08:53;;;;;;;14.60;14.20;;;19.00;59.40;;;;;;5031591;28;20468;-55
2021/12/04 01:11:19;;;;;;;14.90;14.50;;;19.00;59.50;;;;;;5031641;28;20448;-50
2021/12/04 01:13:46;;;;;;;14.80;14.40;;;19.00;59.70;;;;;;5031501;28;20452;-50
2021/12/04 01:16:14;;;;;;;15.00;14.60;;;18.90;59.70;;;;;;5031206;28;20476;-53
2021/12/04 01:18:43;;;;;;;14.83;14.43;;;19.00;59.80;;;;;;5031420;28;20514;-55
2021/12/04 01:21:10;;;;;;;14.70;14.30;;;18.90;59.80;;;;;;5031499;28;20548;-50
2021/12/04 01:23:37;;;;;;;14.30;13.90;;;18.90;59.90;;;;;;5031223;28;20926;-54
2021/12/04 01:26:04;;;;;;;14.63;14.23;;;18.80;60.00;;;;;;5031380;28;20453;-51
2021/12/04 01:28:30;;;;;;;14.80;14.40;;;18.80;60.30;;;;;;5031234;28;20448;-52
2021/12/04 01:30:57;;;;;;;14.90;14.50;;;18.70;60.50;;;;;;5031197;28;20449;-53
2021/12/04 01:33:24;;;;;;;14.70;14.30;;;18.70;61.00;;;;;;5031182;28;20455;-51
2021/12/04 01:35:52;;;;;;;14.20;13.80;;;18.70;61.50;;;;;;5031469;28;20452;-52
2021/12/04 01:38:19;;;;;;;14.83;14.40;;;18.70;61.70;;;;;;5031263;28;20476;-51
2021/12/04 01:40:46;;;;;;;14.73;14.33;;;18.60;61.90;;;;;;5031101;28;20457;-56
2021/12/04 01:43:12;;;;;;;14.30;13.90;;;18.60;62.30;;;;;;5031676;28;20822;-50
2021/12/04 01:45:39;;;;;;;15.13;14.73;;;18.60;62.70;;;;;;5035499;28;20452;-52
2021/12/04 01:48:06;;;;;;;14.90;14.50;;;18.60;62.80;;;;;;5035189;28;20469;-53
2021/12/04 01:50:35;;;;;;;15.20;14.70;;;18.50;63.00;;;;;;5035317;28;20440;-50
2021/12/04 01:53:04;;;;;;;14.80;14.40;;;18.50;63.20;;;;;;5034619;28;20783;-50
2021/12/04 01:55:33;;;;;;;14.60;14.20;;;18.50;63.30;;;;;;5034839;28;20445;-51
2021/12/04 01:58:01;;;;;;;14.90;14.50;;;18.50;63.50;;;;;;5035099;28;20854;-50
2021/12/04 02:00:28;;;;;;;14.00;13.60;;;18.50;63.70;;;;;;5035038;28;20889;-50
2021/12/04 02:02:55;;;;;;;14.90;14.40;;;18.50;63.90;;;;;;5034741;28;20475;-50
2021/12/04 02:05:22;;;;;;;14.60;14.20;;;18.50;64.00;;;;;;5034717;28;20476;-50
2021/12/04 02:07:49;;;;;;;14.40;14.00;;;18.50;64.20;;;;;;5034868;28;20464;-54
2021/12/04 02:10:17;;;;;;;14.70;14.30;;;18.40;64.40;;;;;;5034940;28;20445;-50
2021/12/04 02:12:44;;;;;;;15.00;14.60;;;18.30;64.70;;;;;;5034741;28;20456;-52
2021/12/04 02:15:13;;;;;;;15.20;14.80;;;18.30;65.20;;;;;;5034686;28;20441;-50
2021/12/04 02:17:40;;;;;;;15.50;15.00;;;18.30;65.30;;;;;;5034494;28;20548;-50
2021/12/04 02:20:16;;;;;;;14.67;14.27;;;18.30;65.50;;;;;;5034668;28;20451;-51
2021/12/04 02:22:43;;;;;;;14.80;14.40;;;18.30;65.80;;;;;;5034558;28;20445;-51
2021/12/04 02:25:10;;;;;;;14.47;14.07;;;18.30;65.80;;;;;;5034501;28;20484;-50
2021/12/04 02:27:37;;;;;;;14.30;13.90;;;18.20;66.00;;;;;;5034632;28;20512;-53
2021/12/04 02:30:07;;;;;;;14.77;14.37;;;18.20;66.20;;;;;;5034178;28;20456;-50
2021/12/04 02:32:34;;;;;;;14.60;14.20;;;18.20;66.60;;;;;;5033998;28;20452;-50
2021/12/04 02:35:00;;;;;;;14.03;13.63;;;18.20;66.60;;;;;;5034493;28;20447;-50
2021/12/04 02:37:28;;;;;;;14.20;13.80;;;18.20;66.70;;;;;;5034165;28;20531;-52
2021/12/04 02:39:59;;;;;;;14.83;14.43;;;18.10;66.80;;;;;;5034388;28;20445;-53
2021/12/04 02:42:29;;;;;;;14.50;14.10;;;18.10;67.10;;;;;;5014258;28;20979;-52
2021/12/04 02:44:57;;;;;;;14.77;14.37;;;18.10;67.30;;;;;;5014428;28;20540;-50
2021/12/04 02:47:23;;;;;;;14.70;14.30;;;18.10;67.60;;;;;;5014379;28;20492;-55
2021/12/04 02:49:50;;;;;;;14.60;14.20;;;18.10;67.80;;;;;;5014411;28;20813;-54
2021/12/04 02:52:18;;;;;;;14.97;14.47;;;18.10;68.10;;;;;;5019083;28;20456;-52
2021/12/04 02:54:47;;;;;;;15.33;14.83;;;18.10;68.10;;;;;;5033565;28;20946;-52
2021/12/04 02:57:15;;;;;;;15.27;14.80;;;18.10;68.10;;;;;;5033811;28;20461;-53
2021/12/04 02:59:43;;;;;;;15.07;14.60;;;18.00;68.30;;;;;;5033960;28;20449;-53
2021/12/04 03:02:17;;;;;;;15.37;14.87;;;18.00;68.40;;;;;;5033642;28;20453;-53
2021/12/04 03:04:44;;;;;;;15.13;14.70;;;18.00;68.60;;;;;;5033631;28;20476;-50
2021/12/04 03:07:11;;;;;;;14.83;14.23;;;18.00;68.70;;;;;;5033755;28;20465;-50
2021/12/04 03:09:37;;;;;;;15.10;14.70;;;18.00;68.90;;;;;;5033824;28;20453;-50
2021/12/04 03:12:06;;;;;;;14.60;14.20;;;17.90;68.90;;;;;;5033648;28;20448;-56
2021/12/04 03:14:33;;;;;;;14.60;14.20;;;17.90;69.30;;;;;;5033327;28;20540;-49
2021/12/04 03:17:01;;;;;;;14.60;14.20;;;18.00;69.30;;;;;;5033674;28;20473;-54
2021/12/04 03:19:28;;;;;;;15.03;14.53;;;18.00;69.30;;;;;;5033623;28;20457;-51
2021/12/04 03:21:55;;;;;;;14.80;14.40;;;18.00;69.40;;;;;;5033309;28;20448;-57
2021/12/04 03:24:24;;;;;;;14.33;13.93;;;18.00;69.50;;;;;;5033506;28;20484;-50
2021/12/04 03:26:51;;;;;;;14.60;14.20;;;18.00;69.50;;;;;;5033223;28;20551;-54
2021/12/04 03:29:22;;;;;;;14.70;14.30;;;17.90;69.60;;;;;;5033539;28;20445;-51
2021/12/04 03:32:17;;;;;;;14.00;13.60;;;18.00;69.90;;;;;;5033257;28;20496;-51
2021/12/04 03:40:35;;;;;;;15.43;14.93;;;17.90;70.20;;;;;;5033303;28;20420;-49
2021/12/04 03:43:06;;;;;;;14.70;14.30;;;17.90;70.50;;;;;;5032921;28;20981;-50
2021/12/04 03:45:36;;;;;;;15.30;14.80;;;17.80;70.80;;;;;;5033094;28;20852;-53
2021/12/04 03:48:08;;;;;;;14.80;14.40;;;17.90;71.10;;;;;;5033062;28;20469;-54
2021/12/04 03:50:36;;;;;;;14.80;14.40;;;17.80;71.10;;;;;;5013294;28;20457;-49
2021/12/04 03:53:03;;;;;;;14.90;14.50;;;17.80;71.30;;;;;;5013054;28;20445;-52
2021/12/04 03:55:30;;;;;;;14.90;14.40;;;17.80;71.40;;;;;;5013111;28;20446;-50
2021/12/04 03:57:56;;;;;;;14.53;14.13;;;17.80;72.30;;;;;;5012977;28;20818;-51
2021/12/04 04:00:28;;;;;;;14.90;14.40;;;17.80;71.80;;;;;;5017662;28;20453;-51
2021/12/04 04:02:57;;;;;;;14.70;14.30;;;17.80;71.90;;;;;;5032637;28;20449;-50
2021/12/04 04:05:24;;;;;;;15.00;14.60;;;17.90;72.00;;;;;;5032172;28;20595;-51
2021/12/04 04:07:50;;;;;;;14.87;14.40;;;17.90;71.90;;;;;;5032240;28;20469;-50
2021/12/04 04:10:17;;;;;;;14.60;14.20;;;17.80;72.00;;;;;;5032699;28;20862;-50
2021/12/04 04:12:44;;;;;;;14.47;14.07;;;17.80;72.30;;;;;;5032221;28;20472;-52
2021/12/04 04:15:10;;;;;;;14.80;14.40;;;17.90;72.30;;;;;;5032621;28;20452;-52
2021/12/04 04:17:42;;;;;;;14.50;14.10;;;17.80;72.40;;;;;;5032491;28;20833;-50
2021/12/04 04:20:12;;;;;;;14.63;14.23;;;17.80;72.50;;;;;;5032468;28;20449;-51
2021/12/04 04:22:39;;;;;;;14.50;14.00;;;17.80;72.90;;;;;;5032318;28;20449;-50
2021/12/04 04:25:07;;;;;;;14.83;14.40;;;17.80;72.80;;;;;;5032049;28;21017;-50
2021/12/04 04:27:33;;;;;;;15.10;14.60;;;17.80;73.10;;;;;;5032055;28;20857;-50
2021/12/04 04:30:00;;;;;;;15.27;14.77;;;17.90;73.00;;;;;;5032347;28;20456;-54
2021/12/04 04:32:27;;;;;;;13.80;13.40;;;17.90;73.00;;;;;;5032031;28;20441;-51
2021/12/04 04:34:55;;;;;;;13.10;12.80;;;17.90;73.10;;;;;;5032241;28;20445;-50
2021/12/04 04:37:30;;;;;;;12.80;12.40;;;17.90;73.20;;;;;;5031737;28;20900;-55
2021/12/04 04:59:22;;;;;;;14.10;13.70;;;17.90;73.80;;;;;;4993438;28;20434;-50
2021/12/04 05:02:23;;;;;;;14.20;13.80;;;17.80;73.80;;;;;;5031332;28;20448;-55
2021/12/04 05:10:36;;;;;;;13.87;13.47;;;17.80;74.20;;;;;;5031671;28;20420;-51
2021/12/04 05:13:05;;;;;;;15.27;14.80;;;17.80;74.20;;;;;;5031219;28;20449;-50
2021/12/04 05:15:38;;;;;;;14.80;14.40;;;17.80;74.30;;;;;;5031571;28;20496;-52
2021/12/04 05:18:15;;;;;;;14.13;13.73;;;17.80;74.60;;;;;;5031415;28;20501;-50
2021/12/04 05:20:48;;;;;;;14.60;14.20;;;17.80;74.50;;;;;;5031583;28;20448;-52
2021/12/04 05:23:15;;;;;;;14.50;14.10;;;17.80;74.40;;;;;;5031330;28;21012;-50
2021/12/04 05:25:43;;;;;;;14.80;14.40;;;17.80;74.60;;;;;;5031102;28;20839;-51
2021/12/04 05:28:10;;;;;;;14.87;14.47;;;17.80;74.70;;;;;;5031354;28;20492;-50
2021/12/04 05:30:38;;;;;;;14.60;14.20;;;17.80;74.90;;;;;;5031404;28;20806;-49
2021/12/04 05:33:06;;;;;;;14.40;14.00;;;17.80;75.10;;;;;;5031228;28;20821;-52
2021/12/04 05:35:33;;;;;;;14.70;14.20;;;17.80;75.00;;;;;;5031342;28;20449;-52
2021/12/04 05:37:59;;;;;;;14.57;14.17;;;17.80;75.20;;;;;;5080117;22;20498;-53
2021/12/04 05:40:26;;;;;;;14.50;14.10;;;17.80;75.20;;;;;;5071104;28;20443;-55
2021/12/04 05:43:00;;;;;;;15.00;14.60;;;17.70;75.20;;;;;;5071068;28;20479;-55
2021/12/04 05:45:27;;;;;;;15.10;14.70;;;17.70;75.20;;;;;;5071189;28;20479;-56
2021/12/04 05:47:58;;;;;;;15.43;14.93;;;17.80;75.30;;;;;;5083118;28;20498;-55
2021/12/04 05:50:39;;;;;;;14.70;14.30;;;17.80;75.40;;;;;;5071155;28;20501;-53
2021/12/04 05:53:18;;;;;;;14.70;14.30;;;18.20;76.70;;;;;;5070994;28;20477;-51
2021/12/04 05:55:53;;;;;;;15.07;14.67;;;18.90;74.20;;;;;;5071152;28;20454;-48
2021/12/04 05:58:23;;;;;;;15.10;14.60;;;19.30;71.40;;;;;;5071067;28;20509;-55
2021/12/04 06:00:50;;;;;;;14.60;14.10;;;19.60;70.30;;;;;;5076976;28;20442;-53
2021/12/04 06:03:17;;;;;;;14.80;14.40;;;19.80;68.10;;;;;;5091083;28;20442;-53
2021/12/04 06:05:44;;;;;;;15.33;14.93;;;19.90;67.00;;;;;;5090875;28;20539;-55
2021/12/04 06:08:11;;;;;;;15.70;15.20;;;20.00;66.00;;;;;;5091126;28;20462;-51
2021/12/04 06:10:38;;;;;;;15.73;15.23;;;20.10;65.00;;;;;;5091113;28;20469;-56
2021/12/04 06:13:04;;;;;;;15.03;14.63;;;20.10;64.50;;;;;;5084223;28;20443;-50
2021/12/04 06:15:33;;;;;;;14.63;14.23;;;20.20;63.90;;;;;;5070875;28;20446;-48
2021/12/04 06:17:59;;;;;;;15.33;14.93;;;20.20;63.30;;;;;;5070849;28;20840;-52
2021/12/04 06:23:11;;;;;;;14.97;14.57;;;20.20;62.70;;;;;;5062587;28;20426;-51
2021/12/04 06:25:38;;;;;;;14.60;14.20;;;20.30;62.90;;;;;;5067381;28;20840;-52
2021/12/04 06:28:05;;;;;;;14.90;14.50;;;20.40;62.80;;;;;;5078912;28;20468;-51
2021/12/04 06:30:35;;;;;;;14.20;13.80;;;20.50;62.40;;;;;;5081536;28;20446;-51
2021/12/04 06:33:03;;;;;;;14.00;13.60;;;20.50;62.50;;;;;;5081721;28;20966;-47
2021/12/04 06:35:31;;;;;;;13.40;13.00;;;20.50;62.50;;;;;;5062515;28;20451;-49
2021/12/04 06:37:58;;;;;;;14.00;13.60;;;20.50;62.70;;;;;;5062133;28;20489;-52
2021/12/04 06:40:26;;;;;;;14.13;13.73;;;20.50;62.60;;;;;;5061982;28;20459;-51
2021/12/04 06:42:55;;;;;;;13.90;13.50;;;20.50;62.80;;;;;;5061802;28;20451;-53
2021/12/04 06:45:23;;;;;;;14.27;13.87;;;20.60;62.40;;;;;;5061927;28;21051;-58
2021/12/04 06:47:55;;;;;;;14.43;13.77;;;20.60;62.30;;;;;;5062081;28;20927;-50
2021/12/04 06:50:34;;;;;;;13.80;13.40;;;20.60;62.10;;;;;;5062243;28;20509;-49
2021/12/04 06:53:07;;;;;;;14.30;13.90;;;20.70;62.20;;;;;;5062004;28;20447;-48
2021/12/04 06:55:38;;;;;;;13.83;13.43;;;20.60;62.30;;;;;;5062124;28;20448;-54
2021/12/04 06:58:05;;;;;;;14.33;13.93;;;20.60;62.30;;;;;;5062335;28;20530;-52
2021/12/04 07:00:33;;;;;;;13.07;12.77;;;20.60;62.20;;;;;;5062056;28;20481;-54
2021/12/04 07:03:01;;;;;;;13.70;13.30;;;20.50;62.30;;;;;;5062176;28;20453;-51
2021/12/04 07:05:27;;;;;;;14.20;13.80;;;20.60;62.30;;;;;;5062210;28;21075;-46
2021/12/04 07:07:54;;;;;;;13.93;13.53;;;20.60;62.00;;;;;;5061660;28;20467;-54
2021/12/04 07:10:21;;;;;;;13.57;13.17;;;20.60;61.70;;;;;;5061778;28;20497;-50
2021/12/04 07:12:48;;;;;;;15.00;14.60;;;20.50;62.20;;;;;;5061653;28;20444;-48
2021/12/04 07:15:14;;;;;;;9.60;9.40;;;20.40;62.40;;;;;;5061570;28;20905;-54
2021/12/04 07:17:41;;;;;;;10.10;9.90;;;20.30;63.10;;;;;;5076288;28;20476;-47
2021/12/04 07:20:11;;;;;;;10.97;10.67;;;20.10;63.90;;;;;;5081672;28;20450;-52
2021/12/04 07:22:38;;;;;;;9.77;9.57;;;20.10;64.20;;;;;;5081458;28;20450;-55
2021/12/04 07:25:06;;;;;;;10.17;9.97;;;20.00;64.10;;;;;;5081864;28;21192;-56
2021/12/04 07:27:36;;;;;;;9.60;9.40;;;20.00;64.50;;;;;;5081396;28;20473;-48
2021/12/04 07:30:05;;;;;;;10.23;9.93;;;20.00;65.10;;;;;;5062843;28;20451;-51
2021/12/04 07:32:32;;;;;;;9.93;9.57;;;20.00;64.80;;;;;;5061226;28;20455;-49
2021/12/04 07:34:59;;;;;;;9.63;9.43;;;19.90;65.40;;;;;;5061293;28;21120;-49
2021/12/04 07:37:27;;;;;;;10.80;10.60;;;19.80;65.90;;;;;;5061044;28;20599;-52
2021/12/04 07:39:53;;;;;;;10.17;9.87;;;19.80;66.20;;;;;;5072972;28;20446;-49
2021/12/04 07:42:20;;;;;;;10.10;9.80;;;19.70;66.40;;;;;;5081551;28;20450;-55
2021/12/04 07:44:47;;;;;;;10.20;10.00;;;19.70;66.70;;;;;;5081417;28;20457;-53
2021/12/04 07:47:14;;;;;;;10.30;10.10;;;19.70;66.90;;;;;;5081299;28;21364;-54
2021/12/04 07:49:41;;;;;;;10.70;10.50;;;19.70;66.80;;;;;;5081214;28;20461;-51
2021/12/04 07:52:10;;;;;;;11.10;10.87;;;19.70;67.10;;;;;;5066741;28;20520;-55
2021/12/04 07:54:38;;;;;;;10.60;10.40;;;19.60;67.30;;;;;;5060926;28;20520;-55
2021/12/04 07:57:05;;;;;;;10.60;10.40;;;19.60;67.30;;;;;;5060935;28;20464;-59
2021/12/04 07:59:32;;;;;;;10.73;10.50;;;19.60;67.70;;;;;;5060654;28;20971;-49
2021/12/04 08:01:59;;;;;;;10.40;10.20;;;19.60;68.00;;;;;;5060802;28;20443;-49
2021/12/04 08:04:26;;;;;;;10.60;10.30;;;19.60;68.30;;;;;;5076229;28;20458;-56
2021/12/04 08:06:54;;;;;;;10.73;10.50;;;19.50;68.30;;;;;;5080764;28;20496;-52
2021/12/04 08:09:21;;;;;;;10.47;10.27;;;19.50;67.90;;;;;;5081348;28;20451;-55
2021/12/04 08:11:50;;;;;;;10.87;10.63;;;19.50;67.90;;;;;;5081080;28;20453;-55
2021/12/04 08:14:17;;;;;;;10.70;10.50;;;19.50;68.60;;;;;;5080724;28;20457;-60
2021/12/04 08:16:44;;;;;;;10.63;10.33;;;19.50;68.50;;;;;;5061097;28;21106;-57
2021/12/04 08:19:11;;;;;;;9.70;9.50;;;19.40;68.50;;;;;;5060126;28;20443;-57
2021/12/04 08:21:38;;;;;;;10.00;9.80;;;19.40;68.30;;;;;;5060075;28;20447;-48
2021/12/04 08:24:06;;;;;;;9.57;9.37;;;19.50;68.20;;;;;;5060370;28;20481;-50
2021/12/04 08:26:33;;;;;;;9.70;9.50;;;19.40;68.50;;;;;;5071802;28;20482;-54
2021/12/04 08:29:01;;;;;;;10.23;10.03;;;19.40;68.40;;;;;;5080341;28;20446;-53
2021/12/04 08:31:27;;;;;;;10.20;10.00;;;19.30;68.30;;;;;;5061013;28;20451;-54
2021/12/04 08:33:54;;;;;;;10.33;10.13;;;19.30;69.20;;;;;;5059923;28;20439;-54
2021/12/04 08:36:21;;;;;;;10.77;10.57;;;19.30;69.60;;;;;;5059947;28;20450;-59
2021/12/04 08:38:48;;;;;;;10.00;9.80;;;19.30;69.40;;;;;;5060033;28;20497;-46
2021/12/04 08:41:15;;;;;;;10.73;10.43;;;19.40;69.90;;;;;;5076443;28;20853;-47
2021/12/04 08:43:42;;;;;;;11.40;11.10;;;20.10;70.10;;;;;;5079954;28;20546;-47
2021/12/04 08:46:10;;;;;;;10.93;10.53;;;20.90;66.70;;;;;;5079928;28;20486;-47
2021/12/04 08:48:37;;;;;;;11.10;10.80;;;21.40;64.40;;;;;;5079840;28;20469;-46
2021/12/04 08:51:05;;;;;;;11.10;10.80;;;22.10;62.30;;;;;;5079956;28;20459;-46
2021/12/04 08:53:32;;;;;;;10.93;10.63;;;22.90;59.60;;;;;;5062523;28;20462;-48
2021/12/04 08:55:59;;;;;;;10.20;9.90;;;23.60;57.30;;;;;;5059614;28;20897;-46
2021/12/04 08:58:26;;;;;;;10.27;10.07;;;23.90;55.60;;;;;;5059556;28;20828;-53
2021/12/04 09:00:55;;;;;;;10.30;10.00;;;24.10;54.60;;;;;;5059724;28;20828;-46
2021/12/04 09:03:27;;;;;;;11.17;10.87;;;24.10;53.80;;;;;;5059537;28;20447;-47
2021/12/04 09:05:55;;;;;;;10.57;10.37;;;23.90;54.00;;;;;;5078167;28;20481;-47
2021/12/04 09:08:24;;;;;;;10.43;10.23;;;24.00;53.70;;;;;;5079890;28;20466;-49
2021/12/04 09:10:53;;;;;;;10.90;10.60;;;24.00;53.20;;;;;;5080046;28;20442;-49
2021/12/04 09:13:20;;;;;;;10.80;10.60;;;24.00;53.20;;;;;;5079610;28;20497;-44
2021/12/04 09:15:48;;;;;;;10.50;10.20;;;24.00;53.00;;;;;;5062827;28;20509;-44
2021/12/04 09:18:15;;;;;;;11.20;10.93;;;23.90;52.80;;;;;;5059491;28;20478;-45
2021/12/04 09:20:43;;;;;;;10.50;10.20;;;24.00;52.80;;;;;;5059354;28;20918;-45
2021/12/04 09:23:15;;;;;;;10.30;10.00;;;24.00;52.60;;;;;;5068126;28;20450;-45
2021/12/04 09:25:47;;;;;;;10.50;10.30;;;23.90;52.50;;;;;;5079349;28;20536;-46
2021/12/04 09:28:19;;;;;;;10.80;10.60;;;23.80;52.50;;;;;;5059430;28;20479;-45
2021/12/04 09:31:01;;;;;;;11.07;10.83;;;23.80;52.60;;;;;;5059730;28;20466;-45
2021/12/04 10:01:22;;;;;;;11.50;11.20;;;23.00;53.10;;;;;;5059374;28;20473;-47
2021/12/04 10:12:41;;;;;;;11.00;10.70;;;22.90;53.30;;;;;;5083060;28;20891;-49
2021/12/04 10:15:52;;;;;;;11.73;11.43;;;22.90;53.40;;;;;;5064715;28;20864;-45
2021/12/04 10:24:22;;;;;;;11.73;11.43;;;23.30;53.30;;;;;;5058726;28;20481;-46
2021/12/04 10:32:34;;;;;;;11.83;11.53;;;23.60;53.10;;;;;;5062483;28;20761;-47
2021/12/04 10:35:05;;;;;;;11.17;10.87;;;23.70;52.90;;;;;;5062368;28;20446;-48
2021/12/04 10:37:34;;;;;;;11.53;11.23;;;23.80;52.90;;;;;;5062018;28;20471;-46
2021/12/04 10:40:04;;;;;;;11.70;11.40;;;23.90;52.80;;;;;;5062224;28;20451;-47
2021/12/04 10:42:44;;;;;;;12.73;12.43;;;23.90;52.80;;;;;;5082259;28;20489;-46
2021/12/04 10:45:10;;;;;;;12.70;12.40;;;23.90;52.70;;;;;;5082258;28;20935;-48
2021/12/04 10:47:37;;;;;;;11.63;11.33;;;23.90;52.60;;;;;;5081925;28;20481;-46
2021/12/04 10:50:19;;;;;;;11.20;10.90;;;23.90;52.60;;;;;;5082217;28;20454;-47
2021/12/04 10:52:55;;;;;;;12.20;11.80;;;23.80;52.20;;;;;;5074378;28;20451;-45
2021/12/04 10:55:26;;;;;;;12.70;12.20;;;23.70;52.40;;;;;;5062120;28;20458;-45
2021/12/04 10:58:22;;;;;;;12.60;12.10;;;23.60;52.60;;;;;;5061947;28;20478;-48
2021/12/04 11:01:00;;;;;;;12.60;12.20;;;23.60;52.70;;;;;;5061950;28;20504;-47
2021/12/04 11:23:24;;;;;;;14.00;13.20;;;23.10;53.90;;;;;;5042463;28;20554;-49
2021/12/04 11:28:50;;;;;;;12.30;11.80;;;23.20;53.70;;;;;;5081593;28;20490;-45
2021/12/04 11:39:25;;;;;;;12.10;11.50;;;23.60;52.80;;;;;;5066013;22;20941;-57
2021/12/04 11:42:04;;;;;;;12.40;11.90;;;23.70;52.50;;;;;;5043936;28;20464;-57
2021/12/04 11:44:44;;;;;;;13.53;13.03;;;23.80;52.40;;;;;;5044132;28;20550;-57
2021/12/04 11:47:12;;;;;;;12.37;11.93;;;23.70;52.30;;;;;;5043913;28;20488;-57
2021/12/04 11:49:39;;;;;;;12.57;12.07;;;23.70;52.50;;;;;;5045115;28;20514;-54
2021/12/04 11:52:14;;;;;;;13.23;12.70;;;23.70;52.90;;;;;;5044087;28;20452;-57
2021/12/04 11:54:47;;;;;;;12.40;12.00;;;23.70;53.60;;;;;;5043664;28;20456;-55
2021/12/04 11:57:16;;;;;;;14.20;13.33;;;23.70;55.00;;;;;;5044232;28;20460;-55
2021/12/04 11:59:46;;;;;;;17.07;15.77;;;23.60;56.60;;;;;;5043689;28;20451;-59
2021/12/04 12:02:21;;;;;;;13.80;12.90;;;23.50;57.90;;;;;;5044738;28;20448;-61
2021/12/04 12:04:51;;;;;;;13.70;12.60;;;23.40;61.90;;;;;;5043639;28;20941;-60
2021/12/04 12:07:22;;;;;;;14.50;13.63;;;23.30;61.60;;;;;;5047568;28;20491;-60
2021/12/04 12:10:04;;;;;;;12.67;12.07;;;23.30;59.90;;;;;;5046514;28;20487;-60
2021/12/04 12:12:33;;;;;;;13.17;12.57;;;23.20;58.60;;;;;;5046510;28;20471;-60
2021/12/04 12:15:04;;;;;;;13.17;12.67;;;23.10;57.50;;;;;;5043408;28;20483;-56
2021/12/04 12:17:34;;;;;;;13.17;12.57;;;23.00;56.60;;;;;;5041594;28;20467;-56
2021/12/04 12:20:02;;;;;;;12.30;11.83;;;23.00;56.10;;;;;;5042827;28;20454;-55
2021/12/04 12:22:38;;;;;;;11.60;11.20;;;23.00;54.90;;;;;;5043483;28;20885;-59
2021/12/04 12:25:22;;;;;;;11.70;11.40;;;23.10;54.20;;;;;;5042924;28;20529;-55
2021/12/04 12:33:29;;;;;;;12.30;11.90;;;23.80;51.10;;;;;;5040868;28;20439;-60
2021/12/04 12:36:06;;;;;;;11.00;10.60;;;24.10;50.00;;;;;;5020976;28;20865;-60
2021/12/04 12:38:39;;;;;;;11.63;11.03;;;24.10;49.10;;;;;;5021909;28;21013;-60
2021/12/04 12:41:09;;;;;;;12.87;12.47;;;24.20;48.40;;;;;;5021898;28;20453;-60
2021/12/04 12:43:41;;;;;;;11.53;11.23;;;24.30;47.60;;;;;;5028667;28;20452;-59
2021/12/04 12:46:08;;;;;;;11.67;11.17;;;24.20;46.90;;;;;;5041878;28;20450;-60
2021/12/04 12:48:53;;;;;;;11.83;11.53;;;24.20;46.50;;;;;;5041768;28;20497;-59
2021/12/04 12:51:26;;;;;;;11.40;11.00;;;24.20;46.30;;;;;;5039589;28;20456;-60
2021/12/04 12:53:53;;;;;;;11.80;11.40;;;24.10;46.10;;;;;;5040210;28;20470;-56
2021/12/04 12:56:23;;;;;;;12.10;11.70;;;23.90;46.70;;;;;;5040424;28;20471;-60
2021/12/04 12:58:54;;;;;;;12.23;11.83;;;23.80;46.70;;;;;;5040753;28;20464;-58
2021/12/04 13:13:27;;;;;;;10.93;10.63;;;23.30;45.60;;;;;;5040867;28;20443;-60
2021/12/04 13:16:00;;;;;;;10.00;9.73;;;23.40;45.50;;;;;;5040565;28;20455;-59
2021/12/04 13:18:27;;;;;;;10.63;10.43;;;23.50;45.30;;;;;;5039892;28;20468;-60
2021/12/04 13:21:00;;;;;;;11.30;11.00;;;23.60;45.30;;;;;;5042041;28;20436;-59
2021/12/04 13:23:27;;;;;;;11.40;11.10;;;23.80;45.50;;;;;;5042749;28;20444;-56
2021/12/04 13:25:56;;;;;;;10.50;10.27;;;23.90;45.70;;;;;;5040468;28;20448;-59
2021/12/04 13:28:30;;;;;;;10.90;10.60;;;24.00;45.90;;;;;;5028796;28;20490;-60
2021/12/04 13:31:00;;;;;;;10.50;10.20;;;24.10;46.10;;;;;;5039800;28;20445;-59
2021/12/04 13:33:26;;;;;;;10.00;9.70;;;24.00;46.30;;;;;;5040543;28;20494;-57
2021/12/04 13:35:55;;;;;;;10.30;10.00;;;23.90;46.30;;;;;;5040273;28;20452;-58
2021/12/04 13:38:22;;;;;;;10.17;9.90;;;23.90;46.40;;;;;;5041025;28;20941;-58
2021/12/04 13:40:50;;;;;;;10.63;10.23;;;23.80;46.50;;;;;;5044147;28;20456;-57
2021/12/04 13:43:20;;;;;;;11.17;10.80;;;23.80;47.00;;;;;;5043831;28;20452;-59
2021/12/04 13:45:55;;;;;;;11.83;11.43;;;23.70;47.20;;;;;;5044110;28;20905;-59
2021/12/04 13:48:21;;;;;;;11.03;10.73;;;23.60;47.50;;;;;;5043447;28;20491;-60
2021/12/04 13:50:48;;;;;;;12.40;12.00;;;23.60;47.80;;;;;;5043299;28;20448;-61
2021/12/04 13:53:19;;;;;;;11.53;11.13;;;23.50;48.00;;;;;;5044125;28;20768;-60
2021/12/04 13:55:52;;;;;;;11.77;11.47;;;23.50;48.20;;;;;;5044328;28;20795;-59
2021/12/04 13:58:19;;;;;;;12.10;11.70;;;23.40;48.50;;;;;;5044176;28;20464;-59
2021/12/04 14:00:46;;;;;;;12.10;11.70;;;23.40;48.60;;;;;;5044243;28;20462;-60
2021/12/04 14:03:13;;;;;;;12.00;11.60;;;23.30;48.80;;;;;;5043610;28;20498;-59
2021/12/04 14:05:40;;;;;;;11.37;11.00;;;23.20;49.00;;;;;;5044458;28;20443;-60
2021/12/04 14:08:10;;;;;;;11.83;11.43;;;23.20;49.20;;;;;;5044249;28;20491;-59
2021/12/04 14:10:42;;;;;;;11.37;11.03;;;23.10;49.30;;;;;;5044134;28;20456;-60
2021/12/04 14:13:10;;;;;;;11.13;10.83;;;23.00;49.50;;;;;;5045388;28;20479;-60
2021/12/04 14:15:41;;;;;;;11.80;11.40;;;22.90;49.70;;;;;;5044586;28;20452;-56
2021/12/04 14:18:10;;;;;;;12.27;11.73;;;22.90;50.20;;;;;;5043957;28;20535;-57
2021/12/04 14:20:39;;;;;;;11.37;10.93;;;23.00;50.30;;;;;;5043029;28;20448;-57
2021/12/04 14:23:07;;;;;;;12.20;11.80;;;23.10;50.20;;;;;;5044740;28;20463;-55
2021/12/04 14:25:41;;;;;;;11.17;10.87;;;23.20;50.40;;;;;;5043343;28;20452;-61
2021/12/04 14:28:11;;;;;;;11.73;11.33;;;23.30;50.20;;;;;;5042790;28;20521;-55
2021/12/04 14:30:38;;;;;;;11.40;11.00;;;23.40;50.20;;;;;;5042548;28;20455;-57
2021/12/04 14:33:09;;;;;;;11.00;10.70;;;23.50;50.00;;;;;;5043255;28;20448;-59
2021/12/04 14:35:39;;;;;;;11.30;10.90;;;23.50;49.90;;;;;;5042276;28;21044;-58
2021/12/04 14:38:09;;;;;;;10.40;10.07;;;23.60;49.90;;;;;;5042485;28;20476;-61
2021/12/04 14:40:40;;;;;;;11.20;10.80;;;23.70;49.70;;;;;;5042949;28;20897;-60
2021/12/04 14:43:07;;;;;;;11.20;10.80;;;23.70;49.60;;;;;;5042310;28;20537;-60
2021/12/04 14:45:38;;;;;;;10.23;9.93;;;23.70;49.70;;;;;;5042385;28;20444;-58
2021/12/04 14:48:07;;;;;;;11.00;10.63;;;23.70;49.60;;;;;;5043189;28;20483;-61
2021/12/04 14:50:37;;;;;;;11.73;11.30;;;23.70;49.70;;;;;;5042965;28;20830;-59
2021/12/04 14:53:06;;;;;;;11.47;11.07;;;23.60;49.80;;;;;;5042510;28;20452;-58
2021/12/04 14:55:34;;;;;;;11.50;11.10;;;23.60;49.80;;;;;;5042403;28;20522;-59
2021/12/04 14:58:05;;;;;;;10.97;10.60;;;23.50;49.80;;;;;;5042182;28;21004;-55